Jucurucu, Brazil
Current Conditions -  °F | °C
As of 5:00 PM on Monday 24 Nov 2014 (Local Time) from SBPS Reporting Station
Few Clouds Few Clouds  
Wind Chill: 79°   Ceiling: Unl
Heat Index: 82°   Visibility: 6mi
Dew Point: 73°   Wind: 15mph
Humidity: 83%   Direction: 60°ENE
Pressure: 29.91"   Gusts: NA
Location:  16.84°S, 40.16°W
Report Text: SBPS 242000Z 06013KT 9999 FEW020 26/23 Q1013
Loading
Personal Weather Stations






























Interactive Weather Map New forecast layout! Learn more

10-Day Weather Forecast

Advertisements
Track Severe Weather on mobile